Time;durP1;ratioP1;P1;durP2;ratioP2;P2;SDS_P1;SDS_P2;PMS_P1;PMS_P2;Temp;Humidity;BMP_temperature;BMP_pressure;BME280_temperature;BME280_humidity;BME280_pressure;Samples;Min_cycle;Max_cycle;Signal;HPM_P1;HPM_P2
2021/03/14 00:00:39;;;;;;;;;;;;;;;11.25;50.38;99883.53;4937116;29;19915;-81
2021/03/14 00:03:25;;;;;;;;;;;;;;;11.19;50.84;99877.50;4937973;29;20317;-81
2021/03/14 00:06:10;;;;;;;;;;;;;;;11.29;50.50;99868.09;4938619;29;20486;-80
2021/03/14 00:08:54;;;;;;;;;;;;;;;11.12;50.72;99875.34;4936710;29;19914;-81
2021/03/14 00:11:39;;;;;;;;;;;;;;;10.82;51.23;99875.91;4942244;29;19919;-80
2021/03/14 00:14:24;;;;;;;;;;;;;;;10.81;51.39;99871.59;4938854;29;19914;-80
2021/03/14 00:17:09;;;;;;;;;;;;;;;11.07;50.83;99872.84;4942007;29;19918;-81
2021/03/14 00:19:54;;;;;;;;;;;;;;;11.08;50.59;99866.28;4940860;29;19914;-81
2021/03/14 00:22:38;;;;;;;;;;;;;;;11.26;50.13;99863.34;4940013;29;19914;-81
2021/03/14 00:25:23;;;;;;;;;;;;;;;11.23;50.39;99853.13;4940208;29;19914;-82
2021/03/14 00:28:07;;;;;;;;;;;;;;;11.17;50.87;99854.50;4945733;29;19919;-82
2021/03/14 00:30:52;;;;;;;;;;;;;;;10.95;51.39;99853.00;4944032;29;19914;-82
2021/03/14 00:33:37;;;;;;;;;;;;;;;11.25;50.79;99850.88;4939112;29;19915;-82
2021/03/14 00:36:22;;;;;;;;;;;;;;;11.45;50.04;99858.13;4938439;29;19915;-81
2021/03/14 00:39:07;;;;;;;;;;;;;;;11.50;49.87;99853.22;4941134;29;19914;-81
2021/03/14 00:41:53;;;;;;;;;;;;;;;11.58;49.65;99849.59;4939134;29;20366;-84
2021/03/14 00:44:38;;;;;;;;;;;;;;;11.62;49.58;99844.25;4927299;29;19914;-81
2021/03/14 00:47:23;;;;;;;;;;;;;;;11.46;49.83;99846.91;4928866;29;19915;-83
2021/03/14 00:50:08;;;;;;;;;;;;;;;11.62;49.01;99848.91;4929923;29;19915;-81
2021/03/14 00:52:52;;;;;;;;;;;;;;;11.21;50.34;99841.81;4937541;29;19914;-82
2021/03/14 00:55:39;;;;;;;;;;;;;;;10.80;51.95;99840.06;4940146;29;19918;-81
2021/03/14 00:58:24;;;;;;;;;;;;;;;11.13;51.65;99827.97;4943133;29;19914;-81
2021/03/14 01:01:11;;;;;;;;;;;;;;;11.30;50.39;99821.50;4954655;28;19914;-81
2021/03/14 01:03:58;;;;;;;;;;;;;;;11.15;50.95;99816.75;4936624;29;19914;-82
2021/03/14 01:06:43;;;;;;;;;;;;;;;10.98;51.04;99815.03;4939056;29;19918;-81
2021/03/14 01:09:28;;;;;;;;;;;;;;;11.04;51.08;99812.88;4942434;29;19919;-81
2021/03/14 01:12:12;;;;;;;;;;;;;;;11.00;51.46;99811.97;4939185;29;20285;-81
2021/03/14 01:15:10;;;;;;;;;;;;;;;11.04;51.16;99797.34;4938600;29;19914;-81
2021/03/14 01:18:02;;;;;;;;;;;;;;;11.08;50.81;99792.81;4917812;29;20397;-81
2021/03/14 01:20:47;;;;;;;;;;;;;;;10.92;51.91;99797.34;4940140;29;19915;-81
2021/03/14 01:23:32;;;;;;;;;;;;;;;10.68;52.09;99795.41;4938108;29;20293;-82
2021/03/14 01:26:17;;;;;;;;;;;;;;;10.66;51.61;99791.47;4936550;29;19919;-82
2021/03/14 01:29:02;;;;;;;;;;;;;;;10.25;52.51;99785.03;4942999;29;19914;-82
2021/03/14 01:31:46;;;;;;;;;;;;;;;10.48;51.77;99784.63;4942425;29;19914;-81
2021/03/14 01:34:32;;;;;;;;;;;;;;;10.66;51.48;99775.16;4936671;29;19914;-81
2021/03/14 01:37:18;;;;;;;;;;;;;;;10.74;51.06;99776.94;4942534;29;19914;-80
2021/03/14 01:40:04;;;;;;;;;;;;;;;10.73;50.99;99775.34;4938220;29;19915;-81
2021/03/14 01:42:49;;;;;;;;;;;;;;;10.59;51.28;99769.47;4936422;29;19918;-81
2021/03/14 01:45:34;;;;;;;;;;;;;;;10.03;52.90;99760.94;4940012;29;19915;-82
2021/03/14 01:48:25;;;;;;;;;;;;;;;10.27;52.50;99758.31;4954198;29;19918;-81
2021/03/14 01:51:10;;;;;;;;;;;;;;;10.36;52.37;99747.38;4941397;29;19919;-81
2021/03/14 01:53:56;;;;;;;;;;;;;;;10.38;52.42;99736.13;4936351;29;20444;-81
2021/03/14 01:56:40;;;;;;;;;;;;;;;10.47;52.08;99734.09;4940535;29;19914;-81
2021/03/14 01:59:25;;;;;;;;;;;;;;;10.62;51.57;99736.16;4939287;29;19914;-81
2021/03/14 02:02:10;;;;;;;;;;;;;;;10.73;51.06;99735.38;4942836;29;19915;-80
2021/03/14 02:04:54;;;;;;;;;;;;;;;10.52;51.47;99731.97;4941570;29;20377;-81
2021/03/14 02:07:42;;;;;;;;;;;;;;;10.37;52.15;99726.38;4944515;29;19922;-81
2021/03/14 02:10:28;;;;;;;;;;;;;;;10.32;52.36;99721.97;4942832;29;19915;-80
2021/03/14 02:13:21;;;;;;;;;;;;;;;10.23;52.09;99719.38;4940451;29;19915;-80
2021/03/14 02:16:13;;;;;;;;;;;;;;;10.26;52.53;99718.69;4938657;29;20301;-81
2021/03/14 02:19:00;;;;;;;;;;;;;;;10.39;51.87;99719.50;4942037;29;20281;-81
2021/03/14 02:21:44;;;;;;;;;;;;;;;10.20;52.11;99711.09;4944450;29;19915;-80
2021/03/14 02:24:54;;;;;;;;;;;;;;;10.03;52.50;99708.53;4935396;29;19915;-80
2021/03/14 02:27:41;;;;;;;;;;;;;;;9.50;53.67;99702.00;4923313;29;19923;-81
2021/03/14 02:30:26;;;;;;;;;;;;;;;9.64;53.43;99697.13;4939007;29;20288;-81
2021/03/14 02:33:16;;;;;;;;;;;;;;;9.97;52.50;99699.00;4940489;29;19915;-81
2021/03/14 02:36:01;;;;;;;;;;;;;;;9.66;53.42;99694.84;4940844;29;20300;-81
2021/03/14 02:38:47;;;;;;;;;;;;;;;9.70;54.88;99684.13;4938609;29;19914;-81
2021/03/14 02:41:32;;;;;;;;;;;;;;;9.73;55.11;99688.88;4944165;29;20281;-81
2021/03/14 02:44:17;;;;;;;;;;;;;;;9.63;55.71;99681.16;4937560;29;19914;-81
2021/03/14 02:47:03;;;;;;;;;;;;;;;9.55;55.51;99676.59;4924733;29;19919;-81
2021/03/14 02:49:51;;;;;;;;;;;;;;;9.76;54.94;99686.28;4942836;29;19915;-80
2021/03/14 02:52:37;;;;;;;;;;;;;;;9.51;55.03;99681.09;4940733;29;19914;-80
2021/03/14 02:55:22;;;;;;;;;;;;;;;9.30;55.56;99673.75;4939030;29;20321;-80
2021/03/14 02:58:08;;;;;;;;;;;;;;;9.25;56.09;99673.97;4942392;29;19914;-81
2021/03/14 03:00:54;;;;;;;;;;;;;;;9.11;56.89;99659.09;4940200;29;20293;-80
2021/03/14 03:03:39;;;;;;;;;;;;;;;9.31;55.99;99650.94;4938101;29;19919;-81
2021/03/14 03:06:24;;;;;;;;;;;;;;;9.53;54.77;99657.94;4942639;29;19919;-80
2021/03/14 03:09:09;;;;;;;;;;;;;;;9.37;55.09;99654.25;4940534;29;20297;-81
2021/03/14 03:11:55;;;;;;;;;;;;;;;9.43;55.02;99644.78;4938543;29;19914;-80
2021/03/14 03:14:41;;;;;;;;;;;;;;;9.59;56.14;99636.81;4943446;29;19919;-81
2021/03/14 03:17:25;;;;;;;;;;;;;;;9.64;55.45;99636.59;4933448;28;19932;-82
2021/03/14 03:20:11;;;;;;;;;;;;;;;9.50;56.24;99646.97;4926681;29;19915;-83
2021/03/14 03:22:56;;;;;;;;;;;;;;;9.49;55.26;99639.94;4939573;29;19915;-83
2021/03/14 03:25:41;;;;;;;;;;;;;;;9.26;55.33;99643.00;4945220;29;19915;-82
2021/03/14 03:28:25;;;;;;;;;;;;;;;9.26;56.40;99626.75;4945640;29;20394;-82
2021/03/14 03:31:10;;;;;;;;;;;;;;;9.35;55.54;99637.50;4939466;29;19915;-80
2021/03/14 03:33:55;;;;;;;;;;;;;;;9.30;56.22;99635.78;4939552;29;19915;-81
2021/03/14 03:36:41;;;;;;;;;;;;;;;9.30;55.75;99637.69;4944898;29;19915;-80
2021/03/14 03:39:26;;;;;;;;;;;;;;;9.37;55.24;99618.97;4938918;29;20313;-80
2021/03/14 03:42:15;;;;;;;;;;;;;;;9.10;55.63;99628.47;4937901;29;19915;-82
2021/03/14 03:45:00;;;;;;;;;;;;;;;9.15;55.60;99616.63;4944058;29;20325;-80
2021/03/14 03:47:45;;;;;;;;;;;;;;;9.36;54.67;99611.97;4943178;29;19919;-82
2021/03/14 03:50:31;;;;;;;;;;;;;;;9.33;54.83;99618.88;4942739;29;20297;-82
2021/03/14 03:53:16;;;;;;;;;;;;;;;9.32;54.91;99619.97;4939595;29;19914;-81
2021/03/14 03:56:01;;;;;;;;;;;;;;;9.37;54.60;99622.50;4938543;29;19915;-82
2021/03/14 03:58:47;;;;;;;;;;;;;;;9.18;55.44;99630.31;4942030;29;20296;-81
2021/03/14 04:01:32;;;;;;;;;;;;;;;9.12;55.38;99620.81;4940080;29;19914;-80
2021/03/14 04:04:17;;;;;;;;;;;;;;;9.37;54.55;99621.69;4937407;29;19915;-81
2021/03/14 04:07:02;;;;;;;;;;;;;;;8.91;55.40;99628.94;4942255;29;20374;-81
2021/03/14 04:09:47;;;;;;;;;;;;;;;8.82;55.74;99639.06;4939847;29;19914;-80
2021/03/14 04:12:32;;;;;;;;;;;;;;;9.11;55.00;99634.69;4941680;29;19923;-81
2021/03/14 04:15:19;;;;;;;;;;;;;;;9.25;54.37;99630.56;4941297;29;19915;-81
2021/03/14 04:18:04;;;;;;;;;;;;;;;9.31;54.43;99626.53;4939458;29;19915;-81
2021/03/14 04:20:50;;;;;;;;;;;;;;;9.29;54.25;99620.66;4937210;29;19919;-82
2021/03/14 04:23:36;;;;;;;;;;;;;;;9.00;55.00;99631.56;4937838;29;19915;-81
2021/03/14 04:26:21;;;;;;;;;;;;;;;9.11;54.75;99619.22;4942440;29;19915;-81
2021/03/14 04:29:07;;;;;;;;;;;;;;;9.21;54.78;99623.44;4937684;29;19936;-81
2021/03/14 04:31:53;;;;;;;;;;;;;;;9.08;54.52;99617.19;4940507;29;19914;-81
2021/03/14 04:34:41;;;;;;;;;;;;;;;9.35;53.58;99616.59;4939818;29;19997;-81
2021/03/14 04:37:25;;;;;;;;;;;;;;;9.11;54.05;99610.28;4937190;29;20285;-81
2021/03/14 04:40:11;;;;;;;;;;;;;;;9.26;53.64;99621.31;4940212;29;19915;-81
2021/03/14 04:42:56;;;;;;;;;;;;;;;9.31;53.40;99623.81;4939603;29;20389;-81
2021/03/14 04:45:41;;;;;;;;;;;;;;;9.28;53.19;99613.66;4941198;29;20284;-81
2021/03/14 04:48:26;;;;;;;;;;;;;;;8.78;54.91;99612.94;4942112;29;19918;-81
2021/03/14 04:51:11;;;;;;;;;;;;;;;8.85;54.38;99622.13;4939259;29;19915;-81
2021/03/14 04:53:56;;;;;;;;;;;;;;;8.90;54.13;99616.50;4936587;29;19915;-81
2021/03/14 04:56:41;;;;;;;;;;;;;;;8.77;54.18;99612.16;4935493;29;19919;-81
2021/03/14 04:59:27;;;;;;;;;;;;;;;8.77;54.10;99605.94;4941919;29;20289;-81
2021/03/14 05:02:13;;;;;;;;;;;;;;;8.50;55.21;99599.09;4940235;29;19915;-81
2021/03/14 05:05:00;;;;;;;;;;;;;;;7.97;56.35;99596.97;4941880;29;19910;-82
2021/03/14 05:07:46;;;;;;;;;;;;;;;7.95;57.17;99593.78;4941879;29;19926;-81
2021/03/14 05:10:32;;;;;;;;;;;;;;;8.20;56.65;99601.00;4941822;29;19914;-81
2021/03/14 05:13:17;;;;;;;;;;;;;;;8.48;56.01;99602.13;4942602;29;20293;-80
2021/03/14 05:16:02;;;;;;;;;;;;;;;8.61;55.52;99589.47;4939641;29;19915;-81
2021/03/14 05:18:47;;;;;;;;;;;;;;;8.65;55.02;99598.50;4935862;29;19915;-81
2021/03/14 05:21:32;;;;;;;;;;;;;;;8.66;54.88;99588.47;4941669;29;19914;-81
2021/03/14 05:24:17;;;;;;;;;;;;;;;8.56;55.98;99582.31;4935511;29;19914;-81
2021/03/14 05:27:03;;;;;;;;;;;;;;;8.68;54.82;99568.06;4938046;29;20289;-80
2021/03/14 05:29:48;;;;;;;;;;;;;;;8.50;55.74;99567.38;4941780;29;19914;-82
2021/03/14 05:32:33;;;;;;;;;;;;;;;8.33;55.80;99572.91;4943599;29;19914;-81
2021/03/14 05:35:18;;;;;;;;;;;;;;;8.55;55.51;99569.88;4945765;29;19915;-81
2021/03/14 05:38:04;;;;;;;;;;;;;;;7.91;55.82;99579.31;4940206;29;20349;-81
2021/03/14 05:40:49;;;;;;;;;;;;;;;7.67;57.12;99572.53;4961707;28;19915;-81
2021/03/14 05:43:33;;;;;;;;;;;;;;;7.58;59.08;99574.50;4959741;28;19914;-81
2021/03/14 05:46:20;;;;;;;;;;;;;;;7.74;58.92;99588.28;4930641;29;19914;-80
2021/03/14 05:49:05;;;;;;;;;;;;;;;8.00;56.80;99599.00;4943695;29;19927;-79
2021/03/14 05:51:51;;;;;;;;;;;;;;;8.17;56.67;99601.66;4941870;29;19919;-79
2021/03/14 05:54:36;;;;;;;;;;;;;;;8.12;56.58;99599.13;4939592;29;19914;-79
2021/03/14 05:57:20;;;;;;;;;;;;;;;8.16;57.27;99600.84;4938418;29;19919;-79
2021/03/14 06:00:05;;;;;;;;;;;;;;;7.54;56.82;99588.97;4940662;29;19914;-79
2021/03/14 06:02:51;;;;;;;;;;;;;;;7.83;56.92;99586.34;4939510;29;19918;-79
2021/03/14 06:05:36;;;;;;;;;;;;;;;7.89;57.38;99584.25;4944899;29;19915;-77
2021/03/14 06:08:21;;;;;;;;;;;;;;;8.03;57.15;99576.69;4963848;28;19918;-84
2021/03/14 06:11:06;;;;;;;;;;;;;;;8.30;56.91;99576.28;4959192;28;19914;-76
2021/03/14 06:13:51;;;;;;;;;;;;;;;8.38;56.81;99583.53;4939874;29;19914;-82
2021/03/14 06:16:36;;;;;;;;;;;;;;;8.15;57.19;99566.78;4946562;29;19914;-84
2021/03/14 06:19:20;;;;;;;;;;;;;;;8.38;56.50;99570.00;4960084;28;19914;-83
2021/03/14 06:22:18;;;;;;;;;;;;;;;8.67;56.16;99571.09;4964576;28;20300;-83
2021/03/14 06:25:03;;;;;;;;;;;;;;;8.80;56.39;99564.59;4962728;28;19915;-83
2021/03/14 06:27:51;;;;;;;;;;;;;;;8.95;56.08;99555.88;4960793;28;19919;-83
2021/03/14 06:30:36;;;;;;;;;;;;;;;9.03;56.26;99546.88;4953303;28;19914;-83
2021/03/14 06:33:21;;;;;;;;;;;;;;;9.16;56.34;99545.78;4942063;29;19918;-83
2021/03/14 06:36:11;;;;;;;;;;;;;;;9.05;57.23;99549.22;4941178;29;19914;-83
2021/03/14 06:38:56;;;;;;;;;;;;;;;8.52;59.13;99548.88;4945799;29;19918;-83
2021/03/14 06:41:42;;;;;;;;;;;;;;;8.42;59.89;99560.13;4944996;29;19915;-82
2021/03/14 06:44:32;;;;;;;;;;;;;;;8.59;59.32;99564.59;4940714;29;19915;-82
2021/03/14 06:47:17;;;;;;;;;;;;;;;8.87;59.11;99567.59;4944109;29;19919;-83
2021/03/14 06:50:02;;;;;;;;;;;;;;;9.04;58.29;99564.72;4942139;29;19914;-83
2021/03/14 06:53:07;;;;;;;;;;;;;;;8.94;59.11;99571.34;4937968;29;19914;-83
2021/03/14 06:55:52;;;;;;;;;;;;;;;9.05;59.26;99566.31;4942288;29;19923;-83
2021/03/14 06:58:37;;;;;;;;;;;;;;;8.94;60.76;99574.03;4942447;28;19914;-83
2021/03/14 07:01:24;;;;;;;;;;;;;;;8.86;62.15;99566.00;4958139;28;19915;-83
2021/03/14 07:04:10;;;;;;;;;;;;;;;8.83;62.64;99569.38;4957658;28;19918;-83
2021/03/14 07:06:54;;;;;;;;;;;;;;;8.91;62.93;99582.84;4960119;28;19915;-83
2021/03/14 07:09:40;;;;;;;;;;;;;;;9.11;63.37;99592.09;4964380;28;19918;-83
2021/03/14 07:12:30;;;;;;;;;;;;;;;8.96;64.33;99620.59;4962253;28;19914;-83
2021/03/14 07:15:19;;;;;;;;;;;;;;;8.55;68.08;99699.94;4954728;28;19915;-83
2021/03/14 07:18:05;;;;;;;;;;;;;;;8.67;66.13;99684.91;4938695;29;19914;-83
2021/03/14 07:20:49;;;;;;;;;;;;;;;8.83;65.07;99675.88;4944177;29;19915;-83
2021/03/14 07:23:34;;;;;;;;;;;;;;;9.07;64.58;99674.44;4939547;29;19914;-82
2021/03/14 07:26:37;;;;;;;;;;;;;;;9.21;63.76;99651.34;4935386;29;20386;-83
2021/03/14 07:29:25;;;;;;;;;;;;;;;9.38;63.32;99655.84;4941648;29;20305;-83
2021/03/14 07:32:10;;;;;;;;;;;;;;;9.59;62.79;99658.53;4942451;29;20420;-82
2021/03/14 07:34:55;;;;;;;;;;;;;;;9.74;62.31;99664.13;4943334;29;19918;-83
2021/03/14 07:37:42;;;;;;;;;;;;;;;9.81;61.79;99668.97;4940906;29;19915;-83
2021/03/14 07:40:29;;;;;;;;;;;;;;;9.90;61.66;99655.34;4943313;29;19914;-83
2021/03/14 07:43:14;;;;;;;;;;;;;;;9.98;61.80;99673.44;4918192;29;19914;-83
2021/03/14 07:45:59;;;;;;;;;;;;;;;9.90;62.39;99671.63;4931415;29;19914;-83
2021/03/14 07:48:44;;;;;;;;;;;;;;;9.93;62.60;99665.50;4966463;28;20328;-83
2021/03/14 07:51:31;;;;;;;;;;;;;;;10.09;61.65;99650.94;4958143;28;20373;-83
2021/03/14 07:54:19;;;;;;;;;;;;;;;10.12;61.82;99650.25;4964661;28;19914;-83
2021/03/14 07:57:06;;;;;;;;;;;;;;;10.17;61.96;99646.56;4968670;28;19914;-82
2021/03/14 07:59:51;;;;;;;;;;;;;;;10.29;61.60;99643.84;4946218;29;19922;-84
2021/03/14 08:02:35;;;;;;;;;;;;;;;10.23;62.12;99651.44;4950297;29;19918;-84
2021/03/14 08:05:38;;;;;;;;;;;;;;;10.29;62.45;99647.38;4952415;28;19919;-83
2021/03/14 08:08:24;;;;;;;;;;;;;;;10.53;62.84;99656.66;4952656;29;19918;-83
2021/03/14 08:11:35;;;;;;;;;;;;;;;10.64;62.93;99660.50;4932061;29;19977;-83
2021/03/14 08:14:39;;;;;;;;;;;;;;;10.66;62.55;99655.53;4935898;29;19915;-82
2021/03/14 08:17:26;;;;;;;;;;;;;;;10.77;61.58;99651.19;4936224;29;19914;-82
2021/03/14 08:20:12;;;;;;;;;;;;;;;10.83;61.57;99643.59;4940413;29;19919;-83
2021/03/14 08:22:57;;;;;;;;;;;;;;;10.77;61.83;99639.53;4924109;29;20290;-83
2021/03/14 08:25:48;;;;;;;;;;;;;;;10.97;61.67;99650.22;4927894;29;20378;-83
2021/03/14 08:28:36;;;;;;;;;;;;;;;11.04;60.61;99636.06;4942161;29;19919;-83
2021/03/14 08:31:45;;;;;;;;;;;;;;;11.20;60.09;99619.81;4927983;29;19922;-82
2021/03/14 08:34:44;;;;;;;;;;;;;;;11.19;58.98;99591.00;4921523;29;19915;-84
2021/03/14 08:37:32;;;;;;;;;;;;;;;11.15;59.31;99580.81;4919344;29;19914;-81
2021/03/14 08:40:31;;;;;;;;;;;;;;;11.13;59.56;99569.47;4935274;29;19914;-82
2021/03/14 08:43:35;;;;;;;;;;;;;;;11.06;59.74;99572.03;4919127;29;19914;-82
2021/03/14 08:46:20;;;;;;;;;;;;;;;11.17;60.13;99587.84;4922973;29;19915;-82
2021/03/14 08:49:07;;;;;;;;;;;;;;;11.27;58.51;99588.16;4941434;29;19914;-82
2021/03/14 08:51:52;;;;;;;;;;;;;;;11.33;51.74;99600.34;4947285;29;19914;-82
2021/03/14 08:54:37;;;;;;;;;;;;;;;11.36;51.75;99605.13;4932212;29;19915;-83
2021/03/14 08:57:24;;;;;;;;;;;;;;;11.44;51.74;99603.34;4929919;29;19934;-88
2021/03/14 09:00:13;;;;;;;;;;;;;;;11.74;52.22;99590.16;4933081;29;20305;-87
2021/03/14 09:03:05;;;;;;;;;;;;;;;11.66;50.52;99597.34;4926365;29;19915;-86
2021/03/14 09:06:02;;;;;;;;;;;;;;;11.72;52.49;99603.34;4938791;29;19915;-86
2021/03/14 09:09:17;;;;;;;;;;;;;;;12.02;50.75;99618.16;4952194;29;20290;-86
2021/03/14 09:12:11;;;;;;;;;;;;;;;12.11;50.88;99628.88;4950966;29;19914;-86
2021/03/14 09:15:16;;;;;;;;;;;;;;;12.21;49.89;99626.41;4952578;29;19910;-87
2021/03/14 09:18:23;;;;;;;;;;;;;;;12.11;49.51;99624.22;4953068;29;19911;-86
2021/03/14 09:21:09;;;;;;;;;;;;;;;12.37;50.97;99618.22;4952568;29;19914;-86
2021/03/14 09:24:04;;;;;;;;;;;;;;;12.48;45.75;99618.47;4945115;29;20381;-85
2021/03/14 09:27:02;;;;;;;;;;;;;;;12.53;44.17;99629.91;4950702;29;19915;-85
2021/03/14 09:29:52;;;;;;;;;;;;;;;12.91;43.57;99622.91;4950789;29;19918;-89
2021/03/14 09:32:37;;;;;;;;;;;;;;;13.62;42.33;99620.50;4949382;29;19915;-89
2021/03/14 09:35:36;;;;;;;;;;;;;;;13.61;42.11;99626.34;4937892;29;19914;-86
2021/03/14 09:38:37;;;;;;;;;;;;;;;13.66;41.44;99645.16;4936914;29;19914;-89
2021/03/14 09:41:41;;;;;;;;;;;;;;;13.96;40.97;99653.53;4936476;29;19915;-89
2021/03/14 09:45:18;;;;;;;;;;;;;;;14.29;40.08;99661.09;4926563;29;19915;-88
2021/03/14 09:48:08;;;;;;;;;;;;;;;14.35;38.40;99660.44;4909212;29;19919;-89
2021/03/14 09:51:03;;;;;;;;;;;;;;;14.35;37.43;99665.91;4919767;29;19918;-90
2021/03/14 09:53:48;;;;;;;;;;;;;;;14.38;37.56;99689.81;4945208;29;19914;-88
2021/03/14 09:56:53;;;;;;;;;;;;;;;14.44;37.21;99702.03;4941069;29;19915;-87
2021/03/14 09:59:59;;;;;;;;;;;;;;;14.79;37.93;99706.47;4934780;29;20313;-88
2021/03/14 10:03:05;;;;;;;;;;;;;;;14.03;35.70;99713.75;4931412;29;20309;-80
2021/03/14 10:06:05;;;;;;;;;;;;;;;13.32;36.49;99714.28;4943170;29;19919;-83
2021/03/14 10:09:02;;;;;;;;;;;;;;;13.04;36.87;99717.19;4931106;29;19922;-80
2021/03/14 10:11:47;;;;;;;;;;;;;;;12.90;37.40;99727.78;4942312;29;19915;-80
2021/03/14 10:14:32;;;;;;;;;;;;;;;12.86;39.17;99731.19;4920662;29;19919;-79
2021/03/14 10:17:17;;;;;;;;;;;;;;;12.84;38.15;99741.69;4925327;29;19919;-78
2021/03/14 10:20:05;;;;;;;;;;;;;;;12.77;39.28;99740.72;4911972;29;19914;-80
2021/03/14 10:23:17;;;;;;;;;;;;;;;12.82;38.53;99737.72;4941830;28;19919;-80
2021/03/14 10:26:15;;;;;;;;;;;;;;;12.85;36.53;99731.53;4938773;28;19914;-78
2021/03/14 10:29:13;;;;;;;;;;;;;;;13.03;37.38;99713.66;4928365;29;20480;-80
2021/03/14 10:32:18;;;;;;;;;;;;;;;13.07;37.68;99713.72;4913264;29;19919;-79
2021/03/14 10:35:03;;;;;;;;;;;;;;;13.31;37.16;99727.16;4936896;29;20301;-80
2021/03/14 10:37:53;;;;;;;;;;;;;;;13.36;35.27;99724.13;4940380;29;20356;-81
2021/03/14 10:40:43;;;;;;;;;;;;;;;13.32;33.16;99717.03;4923374;29;19914;-79
2021/03/14 10:43:30;;;;;;;;;;;;;;;13.30;32.79;99720.13;4924741;29;19915;-79
2021/03/14 10:46:45;;;;;;;;;;;;;;;13.55;35.56;99712.47;4914730;29;19915;-80
2021/03/14 10:49:33;;;;;;;;;;;;;;;13.65;34.74;99728.28;4935031;29;19923;-79
2021/03/14 10:52:27;;;;;;;;;;;;;;;13.60;33.95;99731.28;4936453;29;19914;-80
2021/03/14 10:55:26;;;;;;;;;;;;;;;13.53;33.33;99740.13;4923462;29;19915;-78
2021/03/14 10:58:18;;;;;;;;;;;;;;;13.57;32.51;99746.44;4939021;28;19918;-79
2021/03/14 11:01:35;;;;;;;;;;;;;;;13.54;31.21;99749.09;4947554;29;19915;-79
2021/03/14 11:04:27;;;;;;;;;;;;;;;13.59;29.79;99746.88;4943358;29;19915;-79
2021/03/14 11:07:22;;;;;;;;;;;;;;;13.70;29.70;99744.38;4947289;28;19915;-78
2021/03/14 11:10:11;;;;;;;;;;;;;;;13.78;29.95;99735.16;4930157;29;19918;-78
2021/03/14 11:12:59;;;;;;;;;;;;;;;13.88;30.47;99739.25;4933840;29;20309;-78
2021/03/14 11:16:03;;;;;;;;;;;;;;;14.12;30.91;99744.38;4941950;28;19914;-78
2021/03/14 11:19:02;;;;;;;;;;;;;;;14.35;29.43;99736.22;4935353;28;19915;-78
2021/03/14 11:22:11;;;;;;;;;;;;;;;14.35;27.63;99738.97;4943115;28;20381;-78
2021/03/14 11:25:02;;;;;;;;;;;;;;;14.49;30.02;99737.28;4932768;28;19923;-79
2021/03/14 11:27:51;;;;;;;;;;;;;;;14.53;28.59;99738.13;4946179;28;19919;-78
2021/03/14 11:30:39;;;;;;;;;;;;;;;14.63;28.63;99730.50;4928644;29;20397;-78
2021/03/14 11:33:24;;;;;;;;;;;;;;;14.85;28.29;99732.38;4924458;29;19919;-77
2021/03/14 11:36:26;;;;;;;;;;;;;;;14.91;27.51;99722.72;4933152;29;19914;-78
2021/03/14 11:39:20;;;;;;;;;;;;;;;15.01;28.69;99713.88;4943231;29;20369;-78
2021/03/14 11:42:13;;;;;;;;;;;;;;;15.24;28.91;99711.84;4933161;29;19929;-78
2021/03/14 11:45:20;;;;;;;;;;;;;;;15.39;28.18;99712.81;4945106;28;19914;-78
2021/03/14 11:48:04;;;;;;;;;;;;;;;15.38;28.02;99733.97;4950181;28;19918;-77
2021/03/14 11:51:08;;;;;;;;;;;;;;;15.44;27.14;99725.41;4952787;29;19898;-79
2021/03/14 11:53:55;;;;;;;;;;;;;;;15.37;28.49;99715.94;4947089;29;19915;-79
2021/03/14 11:56:40;;;;;;;;;;;;;;;15.54;28.03;99730.28;4951407;29;19915;-79
2021/03/14 11:59:26;;;;;;;;;;;;;;;15.60;26.07;99732.28;4949325;29;20382;-79
2021/03/14 12:02:21;;;;;;;;;;;;;;;15.63;26.75;99719.81;4959036;29;19918;-78
2021/03/14 12:05:35;;;;;;;;;;;;;;;15.45;26.03;99726.97;4957249;29;19915;-78
2021/03/14 12:08:35;;;;;;;;;;;;;;;15.40;25.32;99730.84;4964663;28;19922;-79
2021/03/14 12:11:20;;;;;;;;;;;;;;;15.24;24.51;99714.56;4942989;29;19914;-78
2021/03/14 12:14:09;;;;;;;;;;;;;;;15.29;24.25;99724.41;4958512;28;19914;-79
2021/03/14 12:17:12;;;;;;;;;;;;;;;15.43;25.76;99723.84;4957390;29;19914;-78
2021/03/14 12:20:26;;;;;;;;;;;;;;;15.54;25.64;99722.06;4919456;29;19914;-78
2021/03/14 12:23:33;;;;;;;;;;;;;;;15.43;24.87;99730.09;4953992;28;20385;-78
2021/03/14 12:26:35;;;;;;;;;;;;;;;15.68;25.57;99727.72;4947337;28;19915;-79
2021/03/14 12:29:28;;;;;;;;;;;;;;;15.72;25.36;99729.31;4945223;28;19922;-79
2021/03/14 12:32:19;;;;;;;;;;;;;;;15.70;24.61;99728.91;4939421;29;19922;-78
2021/03/14 12:35:06;;;;;;;;;;;;;;;15.60;23.66;99723.28;4931765;29;19915;-77
2021/03/14 12:37:52;;;;;;;;;;;;;;;15.49;22.36;99722.34;4933728;28;19915;-76
2021/03/14 12:40:40;;;;;;;;;;;;;;;15.50;23.71;99715.69;4940855;28;20309;-77
2021/03/14 12:43:26;;;;;;;;;;;;;;;15.74;25.42;99727.00;4947251;28;19914;-77
2021/03/14 12:46:11;;;;;;;;;;;;;;;15.82;24.88;99714.16;4948565;28;19915;-76
2021/03/14 12:48:56;;;;;;;;;;;;;;;15.88;23.64;99711.88;4934166;29;19919;-78
2021/03/14 12:51:41;;;;;;;;;;;;;;;15.78;23.50;99718.81;4932770;29;19915;-77
2021/03/14 12:54:29;;;;;;;;;;;;;;;15.70;22.59;99717.13;4937209;28;19914;-77
2021/03/14 12:57:15;;;;;;;;;;;;;;;15.72;23.35;99714.81;4948548;28;19914;-78
2021/03/14 13:00:03;;;;;;;;;;;;;;;15.79;22.36;99703.97;4945242;29;20401;-77
2021/03/14 13:02:48;;;;;;;;;;;;;;;15.89;21.57;99719.75;4948153;28;19914;-78
2021/03/14 13:05:33;;;;;;;;;;;;;;;15.99;22.44;99712.78;4950089;28;19915;-77
2021/03/14 13:08:18;;;;;;;;;;;;;;;15.99;22.47;99713.56;4946872;29;19919;-78
2021/03/14 13:11:02;;;;;;;;;;;;;;;15.98;22.77;99714.75;4944488;29;19914;-77
2021/03/14 13:13:47;;;;;;;;;;;;;;;15.88;20.59;99712.66;4948294;29;20328;-78
2021/03/14 13:16:32;;;;;;;;;;;;;;;16.02;22.40;99704.59;4946484;29;19923;-77
2021/03/14 13:19:17;;;;;;;;;;;;;;;15.88;20.39;99698.16;4944734;29;19914;-76
2021/03/14 13:22:02;;;;;;;;;;;;;;;15.85;21.40;99699.69;4949979;29;19918;-77
2021/03/14 13:24:46;;;;;;;;;;;;;;;15.60;21.34;99710.38;4945124;29;20292;-80
2021/03/14 13:27:31;;;;;;;;;;;;;;;15.55;21.75;99699.75;4947947;29;19922;-78
2021/03/14 13:30:16;;;;;;;;;;;;;;;15.77;21.88;99698.84;4948883;29;19923;-81
2021/03/14 13:33:02;;;;;;;;;;;;;;;15.84;21.54;99706.38;4946915;29;20402;-82
2021/03/14 13:35:47;;;;;;;;;;;;;;;15.88;20.94;99711.88;4945013;29;20377;-82
2021/03/14 13:38:31;;;;;;;;;;;;;;;15.68;22.11;99716.75;4948363;29;19922;-82
2021/03/14 13:41:17;;;;;;;;;;;;;;;15.64;21.34;99719.44;4943691;29;19922;-82
2021/03/14 13:44:02;;;;;;;;;;;;;;;15.57;22.31;99721.31;4943396;29;20159;-82
2021/03/14 13:46:47;;;;;;;;;;;;;;;15.44;21.42;99720.72;4948881;29;19915;-81
2021/03/14 13:49:31;;;;;;;;;;;;;;;15.44;21.87;99728.16;4936705;29;19927;-81
2021/03/14 13:52:17;;;;;;;;;;;;;;;15.49;22.27;99734.06;4937342;29;19915;-81
2021/03/14 13:55:02;;;;;;;;;;;;;;;15.43;22.03;99735.59;4951320;28;19914;-81
2021/03/14 13:57:46;;;;;;;;;;;;;;;15.45;21.54;99744.22;4950475;28;19915;-82
2021/03/14 14:00:32;;;;;;;;;;;;;;;15.39;22.23;99738.25;4935546;29;19914;-83
2021/03/14 14:03:17;;;;;;;;;;;;;;;15.24;21.36;99741.97;4948479;28;19914;-82
2021/03/14 14:06:02;;;;;;;;;;;;;;;15.29;20.94;99752.59;4949818;28;19915;-82
2021/03/14 14:08:47;;;;;;;;;;;;;;;15.40;20.84;99756.28;4947579;29;19922;-83
2021/03/14 14:11:31;;;;;;;;;;;;;;;15.39;20.02;99757.44;4952705;28;19915;-81
2021/03/14 14:14:16;;;;;;;;;;;;;;;15.30;20.56;99759.66;4948433;28;19915;-81
2021/03/14 14:17:00;;;;;;;;;;;;;;;15.31;21.77;99761.25;4945133;28;19914;-82
2021/03/14 14:19:45;;;;;;;;;;;;;;;15.35;22.86;99764.81;4944173;29;19914;-82
2021/03/14 14:22:30;;;;;;;;;;;;;;;15.25;21.94;99778.38;4949612;28;19915;-81
2021/03/14 14:25:14;;;;;;;;;;;;;;;15.18;20.69;99781.00;4944573;28;20361;-81
2021/03/14 14:28:00;;;;;;;;;;;;;;;15.25;20.57;99779.16;4931866;29;19915;-82
2021/03/14 14:30:45;;;;;;;;;;;;;;;15.38;20.84;99777.78;4951049;28;19915;-82
2021/03/14 14:33:29;;;;;;;;;;;;;;;15.52;22.15;99790.13;4950848;28;19914;-81
2021/03/14 14:36:14;;;;;;;;;;;;;;;15.73;21.80;99798.66;4944496;29;19914;-82
2021/03/14 14:39:00;;;;;;;;;;;;;;;15.78;19.23;99798.31;4951796;28;19914;-81
2021/03/14 14:41:46;;;;;;;;;;;;;;;15.80;19.94;99798.72;4946400;28;19914;-81